Time;durP1;ratioP1;P1;durP2;ratioP2;P2;SDS_P1;SDS_P2;PMS_P1;PMS_P2;Temp;Humidity;BMP_temperature;BMP_pressure;BME280_temperature;BME280_humidity;BME280_pressure;Samples;Min_cycle;Max_cycle;Signal;HPM_P1;HPM_P2
2020/12/10 00:02:10;;;;;;;17.65;8.30;;;4.30;82.20;;;;;;5037805;28;20126;-68
2020/12/10 00:04:36;;;;;;;11.95;7.57;;;4.40;81.80;;;;;;5030256;28;20173;-68
2020/12/10 00:07:02;;;;;;;11.88;7.20;;;4.30;82.50;;;;;;5037360;28;20037;-68
2020/12/10 00:09:28;;;;;;;10.85;7.15;;;4.30;81.70;;;;;;5040141;28;20033;-68
2020/12/10 00:11:54;;;;;;;11.10;7.03;;;4.30;81.90;;;;;;5033628;28;20409;-68
2020/12/10 00:14:19;;;;;;;10.25;7.07;;;4.30;82.00;;;;;;5040669;28;20032;-68
2020/12/10 00:16:51;;;;;;;12.43;7.45;;;4.30;82.00;;;;;;5039258;28;20041;-67
2020/12/10 00:19:17;;;;;;;10.77;7.10;;;4.30;82.00;;;;;;5047312;28;20095;-68
2020/12/10 00:21:42;;;;;;;10.93;6.78;;;4.30;82.00;;;;;;5046582;28;20021;-68
2020/12/10 00:24:08;;;;;;;10.73;6.82;;;4.30;82.00;;;;;;5043420;28;20129;-68
2020/12/10 00:26:33;;;;;;;10.38;6.40;;;4.30;82.00;;;;;;5048065;28;20448;-67
2020/12/10 00:28:59;;;;;;;9.52;6.43;;;4.30;82.00;;;;;;5051053;28;20454;-68
2020/12/10 00:31:25;;;;;;;9.50;6.97;;;4.30;82.90;;;;;;5048718;28;20036;-68
2020/12/10 00:33:50;;;;;;;11.98;6.75;;;4.30;82.10;;;;;;5048204;28;20033;-68
2020/12/10 00:36:16;;;;;;;9.10;6.88;;;4.30;82.10;;;;;;5044699;28;20079;-66
2020/12/10 00:38:41;;;;;;;9.13;6.95;;;4.30;82.00;;;;;;5043336;28;20036;-67
2020/12/10 00:41:08;;;;;;;9.48;6.78;;;4.30;82.00;;;;;;5050634;28;20067;-68
2020/12/10 00:43:33;;;;;;;9.88;7.05;;;4.40;82.00;;;;;;5049198;28;20029;-68
2020/12/10 00:46:06;;;;;;;9.02;6.57;;;4.40;82.00;;;;;;5048384;28;20029;-68
2020/12/10 00:48:34;;;;;;;8.45;6.25;;;4.40;82.00;;;;;;5040034;28;20088;-68
2020/12/10 00:51:01;;;;;;;9.15;6.88;;;4.40;82.00;;;;;;5050959;28;20568;-68
2020/12/10 00:53:27;;;;;;;8.75;6.55;;;4.40;82.00;;;;;;5049323;28;20056;-67
2020/12/10 00:55:56;;;;;;;9.52;6.63;;;4.40;82.80;;;;;;5049134;28;20485;-68
2020/12/10 00:58:25;;;;;;;10.05;7.13;;;4.40;82.00;;;;;;5047187;28;20540;-68
2020/12/10 01:00:52;;;;;;;8.85;6.50;;;4.40;81.90;;;;;;5042915;28;20037;-67
2020/12/10 01:03:18;;;;;;;8.52;6.55;;;4.40;81.80;;;;;;5041284;28;20026;-68
2020/12/10 01:05:43;;;;;;;9.68;6.85;;;4.50;81.80;;;;;;5041995;28;20570;-67
2020/12/10 01:08:09;;;;;;;10.50;6.72;;;4.50;81.80;;;;;;5046279;28;20029;-68
2020/12/10 01:10:35;;;;;;;8.95;6.63;;;4.50;81.70;;;;;;5044404;28;20396;-66
2020/12/10 01:13:01;;;;;;;9.73;6.85;;;4.50;82.50;;;;;;5051503;28;20053;-67
2020/12/10 01:15:27;;;;;;;9.88;6.35;;;4.50;81.70;;;;;;5038440;28;20061;-68
2020/12/10 01:17:53;;;;;;;8.18;6.13;;;4.50;81.80;;;;;;5030839;28;20400;-68
2020/12/10 01:20:19;;;;;;;7.70;5.57;;;4.50;81.80;;;;;;5037484;28;20691;-68
2020/12/10 01:22:44;;;;;;;8.55;6.13;;;4.50;81.70;;;;;;5043532;28;20037;-68
2020/12/10 01:25:10;;;;;;;8.85;6.30;;;4.50;81.60;;;;;;5042839;28;20032;-68
2020/12/10 01:27:35;;;;;;;8.50;6.22;;;4.50;81.50;;;;;;5045930;28;20025;-67
2020/12/10 01:30:02;;;;;;;7.85;5.90;;;4.50;81.40;;;;;;5047976;28;20029;-68
2020/12/10 01:32:28;;;;;;;6.75;5.60;;;4.50;81.40;;;;;;5044342;28;20025;-67
2020/12/10 01:34:54;;;;;;;7.75;5.93;;;4.50;81.40;;;;;;5045586;28;20099;-68
2020/12/10 01:37:20;;;;;;;8.45;6.38;;;4.40;81.40;;;;;;5045322;28;20396;-67
2020/12/10 01:39:45;;;;;;;8.38;6.25;;;4.40;81.40;;;;;;5047119;28;20033;-68
2020/12/10 01:42:12;;;;;;;8.90;6.10;;;4.40;81.30;;;;;;5044842;28;20523;-68
2020/12/10 01:44:37;;;;;;;8.90;6.53;;;4.40;81.40;;;;;;5040505;28;20025;-67
2020/12/10 01:47:04;;;;;;;10.00;6.93;;;4.40;81.40;;;;;;5049603;28;20044;-68
2020/12/10 01:49:34;;;;;;;11.73;7.38;;;4.30;81.40;;;;;;5049826;28;20385;-68
2020/12/10 01:51:59;;;;;;;11.82;6.55;;;4.30;81.60;;;;;;5045581;28;20026;-67
2020/12/10 01:54:25;;;;;;;10.13;6.95;;;4.30;81.80;;;;;;5045705;28;20037;-68
2020/12/10 01:56:53;;;;;;;10.10;6.88;;;4.30;81.90;;;;;;5047865;28;20029;-67
2020/12/10 01:59:19;;;;;;;9.95;6.75;;;4.30;82.00;;;;;;5044507;28;20033;-67
2020/12/10 02:01:45;;;;;;;9.52;6.57;;;4.30;82.00;;;;;;5043562;28;20029;-67
2020/12/10 02:04:28;;;;;;;8.98;6.20;;;4.30;82.80;;;;;;5042485;28;20056;-68
2020/12/10 02:06:53;;;;;;;9.38;6.63;;;4.30;81.90;;;;;;5039276;28;20033;-68
2020/12/10 02:09:19;;;;;;;9.07;6.50;;;4.30;81.80;;;;;;5042864;28;20041;-67
2020/12/10 02:11:45;;;;;;;12.82;6.50;;;4.30;81.80;;;;;;5042842;28;20033;-68
2020/12/10 02:14:11;;;;;;;10.48;6.22;;;4.30;81.80;;;;;;5044424;28;20125;-67
2020/12/10 02:16:37;;;;;;;9.77;6.53;;;4.30;81.90;;;;;;5043394;28;20524;-68
2020/12/10 02:19:02;;;;;;;10.35;6.57;;;4.30;81.90;;;;;;5044985;28;20694;-67
2020/12/10 02:21:28;;;;;;;8.90;6.47;;;4.30;82.00;;;;;;5038603;28;20120;-67
2020/12/10 02:23:55;;;;;;;9.88;6.18;;;4.30;82.00;;;;;;5043085;28;20048;-67
2020/12/10 02:26:22;;;;;;;8.15;5.97;;;4.30;82.00;;;;;;5044128;28;20049;-67
2020/12/10 02:28:47;;;;;;;9.18;6.10;;;4.30;82.00;;;;;;5043435;28;20515;-68
2020/12/10 02:31:20;;;;;;;9.45;5.97;;;4.30;82.00;;;;;;5041568;28;20129;-68
2020/12/10 02:33:46;;;;;;;8.57;6.00;;;4.30;81.80;;;;;;5048096;28;20029;-67
2020/12/10 02:36:11;;;;;;;8.55;6.20;;;4.30;81.80;;;;;;5037516;28;20029;-68
2020/12/10 02:38:37;;;;;;;9.95;6.65;;;4.30;81.80;;;;;;5038352;28;20698;-68
2020/12/10 02:41:02;;;;;;;8.40;6.18;;;4.30;81.90;;;;;;5033194;28;20029;-68
2020/12/10 02:43:28;;;;;;;8.73;6.13;;;4.30;81.90;;;;;;5044939;28;20041;-68
2020/12/10 02:45:54;;;;;;;8.10;5.75;;;4.30;81.90;;;;;;5033591;28;20037;-64
2020/12/10 02:48:19;;;;;;;8.02;5.90;;;4.30;81.90;;;;;;5042307;28;20119;-68
2020/12/10 02:50:45;;;;;;;7.65;5.80;;;4.30;81.90;;;;;;5046893;28;20037;-66
2020/12/10 02:53:10;;;;;;;9.73;6.10;;;4.30;81.90;;;;;;5040656;28;20512;-67
2020/12/10 02:55:36;;;;;;;8.48;6.22;;;4.30;81.80;;;;;;5037924;28;20037;-68
2020/12/10 02:58:02;;;;;;;7.55;6.00;;;4.30;81.70;;;;;;5039453;28;20373;-67
2020/12/10 03:00:28;;;;;;;7.45;6.20;;;4.30;81.60;;;;;;5041913;28;20037;-67
2020/12/10 03:02:53;;;;;;;7.35;5.70;;;4.30;81.60;;;;;;5036339;28;20048;-68
2020/12/10 03:05:19;;;;;;;8.60;6.15;;;4.30;81.80;;;;;;5042972;28;20408;-68
2020/12/10 03:07:45;;;;;;;7.82;6.10;;;4.30;81.80;;;;;;5043532;28;20041;-67
2020/12/10 03:10:10;;;;;;;9.30;6.15;;;4.30;81.70;;;;;;5046486;28;20099;-68
2020/12/10 03:12:36;;;;;;;7.53;6.00;;;4.30;81.70;;;;;;5044671;28;20488;-67
2020/12/10 03:15:01;;;;;;;6.75;5.45;;;4.30;81.70;;;;;;5047543;28;20033;-67
2020/12/10 03:17:27;;;;;;;7.75;6.15;;;4.30;81.60;;;;;;5041174;28;20057;-68
2020/12/10 03:19:53;;;;;;;8.95;6.30;;;4.30;81.60;;;;;;5041986;28;20037;-67
2020/12/10 03:22:18;;;;;;;7.30;5.90;;;4.30;81.60;;;;;;5039510;28;20052;-68
2020/12/10 03:24:44;;;;;;;8.00;6.03;;;4.30;81.60;;;;;;5044307;28;20037;-68
2020/12/10 03:27:10;;;;;;;7.90;6.05;;;4.30;81.60;;;;;;5044857;28;20033;-68
2020/12/10 03:29:35;;;;;;;8.32;6.00;;;4.30;81.70;;;;;;5048402;28;20033;-68
2020/12/10 03:32:03;;;;;;;7.50;6.03;;;4.20;81.60;;;;;;5047967;28;20037;-68
2020/12/10 03:34:29;;;;;;;6.95;5.85;;;4.30;81.60;;;;;;5047991;28;20040;-68
2020/12/10 03:36:57;;;;;;;8.05;6.22;;;4.20;82.30;;;;;;5040001;28;20033;-68
2020/12/10 03:39:25;;;;;;;7.63;5.85;;;4.10;81.40;;;;;;5046732;28;20033;-67
2020/12/10 03:41:51;;;;;;;8.73;5.90;;;4.10;81.40;;;;;;5045374;28;20512;-67
2020/12/10 03:44:18;;;;;;;8.15;6.28;;;4.10;81.40;;;;;;5033572;28;20125;-67
2020/12/10 03:46:44;;;;;;;8.30;6.07;;;4.00;81.50;;;;;;5040099;28;20061;-67
2020/12/10 03:49:10;;;;;;;7.75;6.43;;;4.00;81.60;;;;;;5044650;28;20555;-67
2020/12/10 03:51:37;;;;;;;8.85;6.82;;;4.00;81.70;;;;;;5042315;28;20083;-67
2020/12/10 03:54:03;;;;;;;8.48;6.07;;;3.90;81.60;;;;;;5034980;28;20033;-67
2020/12/10 03:56:31;;;;;;;9.60;7.00;;;3.90;81.80;;;;;;5029795;28;20080;-66
2020/12/10 03:59:00;;;;;;;8.43;6.13;;;3.90;81.80;;;;;;5040354;28;20500;-67
2020/12/10 04:01:26;;;;;;;8.30;6.32;;;3.80;81.80;;;;;;5041381;28;20133;-67
2020/12/10 04:03:52;;;;;;;7.40;5.82;;;3.80;81.90;;;;;;5043483;28;20064;-67
2020/12/10 04:06:18;;;;;;;7.57;5.90;;;3.80;82.00;;;;;;5046269;28;20586;-66
2020/12/10 04:08:44;;;;;;;8.35;6.50;;;3.80;82.00;;;;;;5038664;28;20037;-67
2020/12/10 04:11:10;;;;;;;9.30;6.22;;;3.80;82.10;;;;;;5044412;28;20112;-68
2020/12/10 04:13:35;;;;;;;9.35;6.20;;;3.80;82.00;;;;;;5040175;28;20045;-68
2020/12/10 04:16:02;;;;;;;8.13;6.18;;;3.70;82.00;;;;;;5036702;28;20033;-67
2020/12/10 04:18:29;;;;;;;8.00;6.07;;;3.70;82.10;;;;;;5043768;28;20056;-67
2020/12/10 04:20:54;;;;;;;7.93;6.18;;;3.70;83.10;;;;;;5042014;28;20470;-67
2020/12/10 04:23:20;;;;;;;8.85;6.25;;;3.80;82.30;;;;;;5047208;28;20029;-67
2020/12/10 04:25:54;;;;;;;8.07;6.20;;;3.80;82.30;;;;;;5036450;28;20091;-67
2020/12/10 04:28:20;;;;;;;7.15;5.78;;;3.80;82.20;;;;;;5036371;28;20036;-67
2020/12/10 04:30:46;;;;;;;7.80;6.40;;;3.80;82.20;;;;;;5039845;28;20033;-67
2020/12/10 04:33:13;;;;;;;8.80;6.53;;;3.80;82.20;;;;;;5047755;28;20079;-67
2020/12/10 04:35:39;;;;;;;9.75;6.80;;;3.80;82.00;;;;;;5040414;28;20032;-67
2020/12/10 04:38:06;;;;;;;9.10;6.72;;;3.80;82.00;;;;;;5035072;28;20033;-67
2020/12/10 04:40:33;;;;;;;7.03;5.93;;;3.90;82.10;;;;;;5032866;28;20029;-66
2020/12/10 04:43:02;;;;;;;7.57;6.10;;;3.90;82.20;;;;;;5036213;28;20029;-67
2020/12/10 04:45:28;;;;;;;8.10;6.13;;;3.90;82.10;;;;;;5034727;28;20036;-67
2020/12/10 04:47:54;;;;;;;8.43;5.90;;;3.90;82.10;;;;;;5041315;28;20021;-67
2020/12/10 04:50:23;;;;;;;8.63;5.68;;;3.90;82.00;;;;;;5039960;28;20025;-68
2020/12/10 04:52:53;;;;;;;7.85;6.00;;;4.00;82.00;;;;;;5046399;28;20404;-67
2020/12/10 04:55:20;;;;;;;7.93;6.13;;;4.00;81.80;;;;;;5042674;28;20033;-67
2020/12/10 04:57:46;;;;;;;7.68;6.28;;;4.10;81.80;;;;;;5035014;28;20029;-67
2020/12/10 05:00:14;;;;;;;7.75;6.10;;;4.00;81.80;;;;;;5036541;28;20578;-67
2020/12/10 05:02:40;;;;;;;7.95;5.90;;;4.00;81.90;;;;;;5040466;28;20056;-67
2020/12/10 05:05:21;;;;;;;8.63;6.70;;;4.00;82.00;;;;;;5042680;28;20447;-67
2020/12/10 05:07:47;;;;;;;10.82;6.25;;;4.00;81.80;;;;;;5028134;28;593359;-68
2020/12/10 05:10:12;;;;;;;8.48;6.38;;;4.00;81.80;;;;;;5043110;28;20044;-67
2020/12/10 05:12:38;;;;;;;9.05;6.88;;;4.00;81.80;;;;;;5037665;28;20041;-67
2020/12/10 05:15:03;;;;;;;9.07;6.72;;;4.00;81.70;;;;;;5040612;28;20045;-67
2020/12/10 05:17:30;;;;;;;7.75;5.95;;;4.00;82.50;;;;;;5041042;28;20033;-67
2020/12/10 05:19:57;;;;;;;8.05;6.40;;;4.00;81.60;;;;;;5040555;28;20040;-67
2020/12/10 05:22:23;;;;;;;8.65;6.50;;;4.00;82.30;;;;;;5038985;28;20048;-67
2020/12/10 05:25:03;;;;;;;8.40;6.00;;;4.00;81.40;;;;;;5043062;28;20029;-67
2020/12/10 05:27:32;;;;;;;7.63;6.15;;;4.00;81.50;;;;;;5039581;28;20040;-67
2020/12/10 05:29:57;;;;;;;8.00;6.50;;;4.00;81.60;;;;;;5030590;28;20041;-67
2020/12/10 05:32:32;;;;;;;7.25;5.97;;;4.00;81.40;;;;;;5044936;28;20033;-67
2020/12/10 05:34:57;;;;;;;8.20;6.35;;;3.90;82.30;;;;;;5040753;28;20063;-67
2020/12/10 05:37:32;;;;;;;8.23;5.85;;;3.90;81.50;;;;;;5049355;28;20102;-67
2020/12/10 05:40:01;;;;;;;9.45;6.50;;;3.90;81.60;;;;;;5054765;28;20041;-67
2020/12/10 05:42:37;;;;;;;9.13;6.85;;;3.90;81.60;;;;;;5046936;28;20408;-66
2020/12/10 05:45:16;;;;;;;10.18;6.28;;;3.80;81.80;;;;;;5050910;28;20037;-68
2020/12/10 05:47:54;;;;;;;8.38;6.38;;;3.80;81.90;;;;;;5050012;28;20033;-67
2020/12/10 05:50:25;;;;;;;8.80;6.72;;;3.80;82.00;;;;;;5051500;28;20029;-67
2020/12/10 05:53:08;;;;;;;9.07;6.93;;;3.80;82.00;;;;;;5045210;28;20033;-67
2020/12/10 05:55:40;;;;;;;8.30;6.63;;;3.80;82.00;;;;;;5041247;28;20041;-67
2020/12/10 05:58:07;;;;;;;9.98;6.63;;;3.90;82.00;;;;;;5040614;28;20083;-68
2020/12/10 06:00:37;;;;;;;10.30;6.80;;;3.80;81.80;;;;;;5032557;28;20029;-67
2020/12/10 06:03:04;;;;;;;8.85;6.65;;;3.80;81.80;;;;;;5044208;28;20038;-67
2020/12/10 06:05:29;;;;;;;11.02;7.25;;;3.80;81.80;;;;;;5043721;28;20037;-67
2020/12/10 06:08:06;;;;;;;10.68;7.88;;;3.80;82.00;;;;;;5047706;28;20132;-67
2020/12/10 06:10:37;;;;;;;10.93;7.57;;;3.80;82.00;;;;;;5040596;28;20029;-67
2020/12/10 06:13:03;;;;;;;11.38;8.15;;;3.90;82.10;;;;;;5045014;28;20045;-67
2020/12/10 06:15:32;;;;;;;14.00;8.57;;;3.90;82.10;;;;;;5040433;28;20037;-67
2020/12/10 06:18:08;;;;;;;10.50;7.82;;;3.90;82.10;;;;;;5042954;28;20035;-67
2020/12/10 06:20:37;;;;;;;11.45;7.78;;;3.90;82.00;;;;;;5035155;28;20385;-67
2020/12/10 06:23:30;;;;;;;10.05;6.70;;;3.90;82.10;;;;;;5043658;28;20038;-67
2020/12/10 06:25:58;;;;;;;12.85;7.95;;;3.90;82.10;;;;;;5033395;28;20444;-67
2020/12/10 06:28:25;;;;;;;12.18;7.47;;;3.90;82.10;;;;;;5046273;28;20032;-68
2020/12/10 06:31:03;;;;;;;10.35;7.47;;;4.00;82.10;;;;;;5046699;28;20029;-67
2020/12/10 06:33:45;;;;;;;10.63;7.20;;;4.00;81.80;;;;;;5050585;28;20018;-67
2020/12/10 06:36:22;;;;;;;9.95;6.57;;;4.00;81.90;;;;;;5035176;28;20076;-68
2020/12/10 06:38:52;;;;;;;9.75;6.95;;;4.00;82.80;;;;;;5028245;28;20037;-67
2020/12/10 06:41:19;;;;;;;12.27;7.90;;;4.00;82.00;;;;;;5039125;28;20029;-67
2020/12/10 06:43:44;;;;;;;11.90;7.93;;;4.00;82.00;;;;;;5044626;28;20098;-67
2020/12/10 06:46:10;;;;;;;11.95;7.50;;;4.00;82.00;;;;;;5048882;28;20045;-68
2020/12/10 06:48:50;;;;;;;13.25;8.57;;;4.00;81.90;;;;;;5048939;28;20488;-67
2020/12/10 06:51:20;;;;;;;16.63;9.05;;;4.00;81.80;;;;;;5047942;28;20091;-67
2020/12/10 06:54:01;;;;;;;17.25;8.45;;;4.00;81.80;;;;;;5048881;28;20033;-67
2020/12/10 06:56:28;;;;;;;15.30;8.25;;;4.00;81.60;;;;;;5035132;28;20044;-67
2020/12/10 06:58:57;;;;;;;13.45;8.23;;;4.00;81.60;;;;;;5046316;28;20032;-67
2020/12/10 07:01:37;;;;;;;12.73;8.60;;;4.00;81.60;;;;;;5038484;28;20028;-67
2020/12/10 07:07:05;;;;;;;15.68;8.68;;;4.00;81.40;;;;;;5031989;28;20119;-67
2020/12/10 07:09:55;;;;;;;11.70;7.50;;;4.00;81.50;;;;;;5038465;28;20040;-67
2020/12/10 07:12:24;;;;;;;10.30;7.28;;;4.00;81.40;;;;;;5043775;28;20041;-67
2020/12/10 07:14:53;;;;;;;11.93;8.05;;;4.10;81.60;;;;;;5045647;28;20632;-66
2020/12/10 07:17:19;;;;;;;12.38;7.75;;;4.00;81.60;;;;;;5046434;28;20036;-66
2020/12/10 07:19:45;;;;;;;11.68;7.38;;;4.00;81.40;;;;;;5036168;28;20040;-68
2020/12/10 07:22:11;;;;;;;10.65;7.20;;;4.00;81.40;;;;;;5043765;28;20531;-67
2020/12/10 07:24:38;;;;;;;13.93;8.30;;;4.00;81.50;;;;;;5031223;28;20041;-68
2020/12/10 07:27:04;;;;;;;10.43;6.95;;;4.00;81.50;;;;;;5044831;28;20044;-67
2020/12/10 07:29:29;;;;;;;12.25;7.65;;;4.00;81.40;;;;;;5046034;28;20412;-67
2020/12/10 07:31:55;;;;;;;10.65;7.60;;;4.00;81.40;;;;;;5047994;28;20036;-67
2020/12/10 07:34:21;;;;;;;11.65;8.00;;;4.00;81.50;;;;;;5036610;28;20124;-67
2020/12/10 07:36:52;;;;;;;12.00;7.75;;;4.00;81.60;;;;;;5046504;28;20044;-67
2020/12/10 07:39:32;;;;;;;15.38;9.30;;;4.00;81.60;;;;;;5041797;28;20021;-67
2020/12/10 07:41:58;;;;;;;16.70;9.60;;;4.00;81.60;;;;;;5045913;28;20504;-68
2020/12/10 07:44:29;;;;;;;16.30;9.77;;;4.00;81.60;;;;;;5042484;28;20029;-68
2020/12/10 07:46:55;;;;;;;15.77;9.73;;;4.00;81.40;;;;;;5048049;28;20033;-68
2020/12/10 07:49:31;;;;;;;17.33;9.68;;;4.00;81.30;;;;;;5049798;28;20391;-67
2020/12/10 07:52:07;;;;;;;18.65;10.43;;;4.00;81.30;;;;;;5040762;28;20041;-67
2020/12/10 07:54:48;;;;;;;15.52;10.05;;;4.00;81.30;;;;;;5046679;28;20036;-67
2020/12/10 07:57:25;;;;;;;14.88;9.07;;;4.00;81.20;;;;;;5045884;28;20021;-68
2020/12/10 08:00:05;;;;;;;15.68;9.20;;;4.00;81.40;;;;;;5036841;28;20040;-68
2020/12/10 08:02:51;;;;;;;14.88;9.75;;;3.90;81.40;;;;;;5041719;28;20041;-67
2020/12/10 08:05:17;;;;;;;20.13;10.30;;;3.90;81.40;;;;;;5034899;28;20037;-68
2020/12/10 08:07:51;;;;;;;18.92;10.38;;;3.90;81.30;;;;;;5039082;28;20381;-68
2020/12/10 08:10:26;;;;;;;15.05;9.95;;;3.90;81.30;;;;;;5037666;28;20021;-68
2020/12/10 08:13:15;;;;;;;16.10;9.63;;;3.90;81.60;;;;;;5040848;28;20508;-68
2020/12/10 08:15:43;;;;;;;17.17;10.02;;;3.80;81.80;;;;;;5039789;28;20060;-68
2020/12/10 08:18:10;;;;;;;18.63;10.05;;;3.80;81.80;;;;;;5045396;28;20061;-68
2020/12/10 08:20:39;;;;;;;19.77;10.52;;;3.80;81.90;;;;;;5038631;28;20029;-67
2020/12/10 08:23:05;;;;;;;21.95;12.00;;;3.80;82.00;;;;;;5041351;28;20038;-68
2020/12/10 08:25:31;;;;;;;24.92;12.82;;;3.80;82.00;;;;;;5039633;28;20044;-68
2020/12/10 08:27:56;;;;;;;26.30;13.02;;;3.80;82.10;;;;;;5047032;28;20036;-67
2020/12/10 08:30:23;;;;;;;24.50;12.18;;;3.80;82.10;;;;;;5034974;28;20037;-68
2020/12/10 08:32:54;;;;;;;25.00;13.40;;;3.80;82.10;;;;;;5045877;28;20071;-68
2020/12/10 08:35:20;;;;;;;25.00;13.13;;;3.90;82.20;;;;;;5044351;28;20064;-67
2020/12/10 08:37:46;;;;;;;28.50;14.65;;;3.90;82.30;;;;;;5049721;28;20098;-68
2020/12/10 08:40:12;;;;;;;28.67;14.52;;;3.90;82.20;;;;;;5040157;28;20037;-67
2020/12/10 08:42:38;;;;;;;30.48;15.50;;;3.90;82.10;;;;;;5038930;28;20025;-67
2020/12/10 08:45:05;;;;;;;33.60;15.32;;;3.90;82.90;;;;;;5049933;28;20094;-67
2020/12/10 08:47:32;;;;;;;36.88;16.55;;;3.90;82.10;;;;;;5051449;28;20033;-68
2020/12/10 08:50:22;;;;;;;42.25;17.45;;;3.90;82.10;;;;;;5050688;28;20504;-68
2020/12/10 08:52:49;;;;;;;42.15;17.67;;;3.90;82.10;;;;;;5049467;28;20036;-68
2020/12/10 08:55:14;;;;;;;38.95;17.30;;;3.90;82.10;;;;;;5040921;28;20041;-68
2020/12/10 08:57:50;;;;;;;38.78;15.75;;;3.90;82.00;;;;;;5047595;28;20040;-67
2020/12/10 09:00:16;;;;;;;34.25;15.40;;;3.80;81.90;;;;;;5043124;28;20029;-68
2020/12/10 09:02:42;;;;;;;40.22;16.48;;;3.80;82.00;;;;;;5044045;28;20033;-68
2020/12/10 09:05:08;;;;;;;35.50;15.32;;;3.80;82.00;;;;;;5048331;28;20033;-67
2020/12/10 09:07:34;;;;;;;35.90;14.98;;;3.80;82.10;;;;;;5039489;28;20044;-67
2020/12/10 09:10:03;;;;;;;33.42;15.00;;;3.80;82.20;;;;;;5045225;28;20036;-67
2020/12/10 09:12:28;;;;;;;30.77;13.98;;;3.80;82.30;;;;;;5044271;28;20033;-67
2020/12/10 09:14:54;;;;;;;35.83;14.60;;;3.80;82.30;;;;;;5047217;28;20052;-67
2020/12/10 09:17:20;;;;;;;34.90;14.68;;;3.80;82.30;;;;;;5041794;28;20051;-67
2020/12/10 09:19:45;;;;;;;31.25;13.63;;;3.80;82.20;;;;;;5042860;28;20047;-68
2020/12/10 09:22:11;;;;;;;35.13;14.80;;;3.80;82.10;;;;;;5045604;28;20484;-68
2020/12/10 09:24:37;;;;;;;31.48;14.10;;;3.80;82.10;;;;;;5045326;28;20044;-68
2020/12/10 09:27:06;;;;;;;29.00;13.52;;;3.80;82.00;;;;;;5040189;28;20063;-67
2020/12/10 09:29:38;;;;;;;34.40;14.45;;;3.80;82.00;;;;;;5051069;28;20025;-68
2020/12/10 09:32:04;;;;;;;28.13;13.55;;;3.80;82.00;;;;;;5042900;28;20029;-68
2020/12/10 09:34:30;;;;;;;36.05;15.32;;;3.80;81.80;;;;;;5045079;28;20503;-68
2020/12/10 09:36:58;;;;;;;33.55;15.23;;;3.80;81.90;;;;;;5045884;28;20428;-67
2020/12/10 09:39:23;;;;;;;33.17;14.70;;;3.70;81.90;;;;;;5044206;28;20033;-68
2020/12/10 09:41:49;;;;;;;34.95;15.38;;;3.70;82.00;;;;;;5036737;28;20037;-68
2020/12/10 09:44:14;;;;;;;37.80;15.20;;;3.80;82.10;;;;;;5045926;28;20120;-68
2020/12/10 09:46:41;;;;;;;32.53;14.82;;;3.70;82.00;;;;;;5039313;28;20048;-68
2020/12/10 09:49:07;;;;;;;36.20;15.23;;;3.70;82.00;;;;;;5047424;28;20032;-68
2020/12/10 09:51:39;;;;;;;34.30;15.57;;;3.70;82.00;;;;;;5044945;28;20285;-68
2020/12/10 09:59:21;;;;;;;30.48;13.32;;;3.70;82.10;;;;;;5047753;28;20107;-68
2020/12/10 10:01:46;;;;;;;33.13;14.35;;;3.70;82.20;;;;;;5042789;28;20022;-68
2020/12/10 10:04:12;;;;;;;34.38;14.95;;;3.70;82.20;;;;;;5050026;28;20439;-68
2020/12/10 10:06:38;;;;;;;37.50;16.15;;;3.70;82.30;;;;;;5042759;28;20063;-68
2020/12/10 10:09:05;;;;;;;38.33;16.02;;;3.70;82.20;;;;;;5048184;28;20145;-68
2020/12/10 10:11:31;;;;;;;34.05;14.82;;;3.60;82.20;;;;;;5051856;28;20032;-68
2020/12/10 10:13:57;;;;;;;32.55;14.13;;;3.60;82.30;;;;;;5045980;28;20041;-68
2020/12/10 10:16:31;;;;;;;40.17;15.88;;;3.70;82.50;;;;;;5048153;28;20508;-67
2020/12/10 10:18:59;;;;;;;36.72;15.88;;;3.60;82.40;;;;;;5046935;28;20087;-67
2020/12/10 10:21:28;;;;;;;40.92;17.73;;;3.60;82.40;;;;;;5037236;28;20029;-67
2020/12/10 10:23:57;;;;;;;42.83;16.83;;;3.70;82.40;;;;;;5041543;28;20038;-68
2020/12/10 10:26:24;;;;;;;35.80;15.48;;;3.70;82.30;;;;;;5050014;28;20025;-68
2020/12/10 10:28:52;;;;;;;34.55;14.75;;;3.70;82.30;;;;;;5045289;28;20043;-68
2020/12/10 10:31:18;;;;;;;35.70;16.77;;;3.60;82.40;;;;;;5049013;28;20032;-68
2020/12/10 10:33:44;;;;;;;35.95;15.15;;;3.70;82.50;;;;;;5038790;28;20032;-68
2020/12/10 10:36:10;;;;;;;38.20;16.35;;;3.70;82.50;;;;;;5041009;28;20075;-68
2020/12/10 10:38:36;;;;;;;35.53;15.52;;;3.70;82.30;;;;;;5042653;28;20388;-68
2020/12/10 10:41:02;;;;;;;36.80;16.35;;;3.70;82.30;;;;;;5046365;28;20108;-68
2020/12/10 10:43:28;;;;;;;37.50;16.58;;;3.70;82.10;;;;;;5044110;28;20028;-68
2020/12/10 10:45:53;;;;;;;39.53;17.17;;;3.70;82.20;;;;;;5040322;28;20412;-65
2020/12/10 10:48:19;;;;;;;35.20;16.17;;;3.60;82.10;;;;;;5037094;28;20088;-68
2020/12/10 10:50:45;;;;;;;38.03;17.25;;;3.60;82.10;;;;;;5040848;28;20071;-68
2020/12/10 10:53:11;;;;;;;35.17;16.08;;;3.60;82.20;;;;;;5042947;28;20512;-68
2020/12/10 10:55:36;;;;;;;33.53;15.88;;;3.60;82.30;;;;;;5049550;28;20033;-68
2020/12/10 10:58:02;;;;;;;41.35;17.80;;;3.60;82.30;;;;;;5037159;28;20106;-68
2020/12/10 11:00:28;;;;;;;37.28;16.70;;;3.60;82.40;;;;;;5038914;28;20447;-68
2020/12/10 11:02:53;;;;;;;43.72;17.10;;;3.60;82.30;;;;;;5039721;28;20068;-68
2020/12/10 11:05:19;;;;;;;42.33;16.80;;;3.60;82.40;;;;;;5045822;28;20030;-68
2020/12/10 11:07:45;;;;;;;35.90;15.57;;;3.60;82.50;;;;;;5049071;28;20083;-68
2020/12/10 11:10:11;;;;;;;35.90;15.63;;;3.60;82.50;;;;;;5035260;28;20068;-68
2020/12/10 11:12:37;;;;;;;41.10;17.40;;;3.60;82.50;;;;;;5038097;28;20036;-68
2020/12/10 11:15:03;;;;;;;41.50;17.65;;;3.60;82.50;;;;;;5044663;28;20121;-68
2020/12/10 11:17:28;;;;;;;42.17;17.27;;;3.60;82.30;;;;;;5039282;28;20521;-68
2020/12/10 11:19:54;;;;;;;38.97;17.13;;;3.60;82.20;;;;;;5045109;28;20175;-69
2020/12/10 11:22:20;;;;;;;40.95;16.63;;;3.50;82.20;;;;;;5034495;28;20321;-69
2020/12/10 11:24:46;;;;;;;43.22;16.98;;;3.50;82.10;;;;;;5039917;28;20052;-67
2020/12/10 11:27:12;;;;;;;43.45;18.58;;;3.50;82.40;;;;;;5035438;28;20037;-68
2020/12/10 11:29:37;;;;;;;37.85;17.17;;;3.40;82.50;;;;;;5037470;28;20167;-68
2020/12/10 11:32:03;;;;;;;41.80;17.90;;;3.40;82.60;;;;;;5044921;28;20037;-68
2020/12/10 11:34:30;;;;;;;42.25;17.90;;;3.40;82.80;;;;;;5038430;28;20550;-68
2020/12/10 11:36:56;;;;;;;39.05;16.98;;;3.40;82.80;;;;;;5042883;28;20048;-68
2020/12/10 11:39:21;;;;;;;38.15;15.93;;;3.40;82.90;;;;;;5042231;28;20025;-68
2020/12/10 11:41:47;;;;;;;35.78;15.93;;;3.40;83.00;;;;;;5037038;28;20025;-68
2020/12/10 11:44:12;;;;;;;37.00;15.85;;;3.40;83.10;;;;;;5044221;28;20041;-67
2020/12/10 11:46:38;;;;;;;40.75;17.30;;;3.40;83.20;;;;;;5034753;28;20493;-68
2020/12/10 11:49:04;;;;;;;36.65;15.18;;;3.40;83.20;;;;;;5040537;28;20133;-68
2020/12/10 11:51:33;;;;;;;35.13;16.05;;;3.50;83.20;;;;;;5039220;28;20131;-68
2020/12/10 11:54:00;;;;;;;36.40;16.42;;;3.50;83.20;;;;;;5035206;28;20037;-68
2020/12/10 11:56:26;;;;;;;38.55;17.52;;;3.60;83.10;;;;;;5041125;28;20045;-68
2020/12/10 11:58:51;;;;;;;41.60;17.38;;;3.60;83.70;;;;;;5044740;28;20026;-68
2020/12/10 12:01:17;;;;;;;38.78;17.02;;;3.60;82.50;;;;;;5048510;28;20448;-67
2020/12/10 12:03:43;;;;;;;34.03;15.90;;;3.50;82.50;;;;;;5043766;28;20083;-67
2020/12/10 12:06:08;;;;;;;39.50;16.83;;;3.50;82.60;;;;;;5033780;28;20208;-68
2020/12/10 12:08:35;;;;;;;35.53;16.05;;;3.50;82.90;;;;;;5042554;28;20033;-68
2020/12/10 12:11:02;;;;;;;38.70;16.90;;;3.60;83.00;;;;;;5035831;28;20087;-68
2020/12/10 12:13:28;;;;;;;37.65;17.90;;;3.60;83.00;;;;;;5042327;28;20060;-68
2020/12/10 12:15:54;;;;;;;35.30;17.17;;;3.60;82.60;;;;;;5042780;28;20087;-65
2020/12/10 12:18:20;;;;;;;39.08;17.63;;;3.60;82.50;;;;;;5044839;28;20025;-65
2020/12/10 12:20:46;;;;;;;37.28;17.83;;;3.50;82.40;;;;;;5037078;28;20087;-68
2020/12/10 12:23:12;;;;;;;36.40;17.73;;;3.50;82.60;;;;;;5041347;28;20436;-68
2020/12/10 12:25:39;;;;;;;35.35;16.08;;;3.50;82.70;;;;;;5038017;28;20052;-68
2020/12/10 12:28:05;;;;;;;32.45;15.68;;;3.50;82.80;;;;;;5036087;28;20037;-68
2020/12/10 12:30:33;;;;;;;33.15;16.02;;;3.50;82.80;;;;;;5035204;28;20051;-68
2020/12/10 12:33:00;;;;;;;36.47;18.15;;;3.60;83.00;;;;;;5034755;28;20033;-68
2020/12/10 12:35:26;;;;;;;34.47;16.83;;;3.60;82.80;;;;;;5038519;28;20037;-68
2020/12/10 12:37:52;;;;;;;33.30;16.45;;;3.60;82.60;;;;;;5044292;28;20442;-68
2020/12/10 12:40:18;;;;;;;31.10;14.75;;;3.60;82.50;;;;;;5038034;28;20041;-68
2020/12/10 12:42:44;;;;;;;33.25;15.07;;;3.60;82.30;;;;;;5046387;28;20037;-68
2020/12/10 12:45:11;;;;;;;36.40;15.77;;;3.60;82.60;;;;;;5031441;28;20038;-68
2020/12/10 12:47:37;;;;;;;30.05;14.90;;;3.60;82.80;;;;;;5055288;28;20029;-68
2020/12/10 12:50:05;;;;;;;28.23;14.25;;;3.60;82.80;;;;;;5038931;28;20091;-68
2020/12/10 12:52:31;;;;;;;32.67;15.27;;;3.60;82.90;;;;;;5027218;28;20029;-67
2020/12/10 12:54:57;;;;;;;32.17;15.45;;;3.70;83.00;;;;;;5043582;28;20044;-68
2020/12/10 12:57:23;;;;;;;33.17;15.30;;;3.70;83.10;;;;;;5037142;28;20111;-68
2020/12/10 12:59:49;;;;;;;29.20;14.90;;;3.80;83.00;;;;;;5038062;28;20071;-68